Time;durP1;ratioP1;P1;durP2;ratioP2;P2;SDS_P1;SDS_P2;PMS_P1;PMS_P2;Temp;Humidity;BMP_temperature;BMP_pressure;BME280_temperature;BME280_humidity;BME280_pressure;Samples;Min_cycle;Max_cycle;Signal;HPM_P1;HPM_P2
2022/01/28 00:00:11;;;;;;;1.73;0.50;;;17.20;57.00;;;;;;5053415;28;45483;-82
2022/01/28 00:03:00;;;;;;;1.45;0.40;;;17.20;58.80;;;;;;5052328;28;44746;-82
2022/01/28 00:05:30;;;;;;;1.33;0.40;;;17.30;56.90;;;;;;5056824;28;44651;-82
2022/01/28 00:07:57;;;;;;;1.05;0.47;;;16.70;56.30;;;;;;5053599;28;44917;-82
2022/01/28 00:10:33;;;;;;;1.10;0.50;;;17.20;58.40;;;;;;5054951;28;46097;-82
2022/01/28 00:13:18;;;;;;;0.40;0.20;;;17.20;59.80;;;;;;5053927;28;44533;-82
2022/01/28 00:16:06;;;;;;;1.45;0.40;;;17.20;58.80;;;;;;5052688;28;44639;-82
2022/01/28 00:18:55;;;;;;;1.58;0.52;;;17.30;59.00;;;;;;5053482;28;44793;-81
2022/01/28 00:38:10;;;;;;;1.30;0.40;;;17.30;57.20;;;;;;5050677;28;44612;-82
2022/01/28 00:40:38;;;;;;;1.40;0.50;;;17.80;58.70;;;;;;5046943;28;44671;-82
2022/01/28 00:43:11;;;;;;;1.00;0.30;;;17.20;56.40;;;;;;5039873;28;45455;-82
2022/01/28 00:45:41;;;;;;;0.52;0.30;;;17.20;58.10;;;;;;5052998;28;44936;-82
2022/01/28 00:48:09;;;;;;;1.98;0.55;;;17.10;55.90;;;;;;5052420;28;44704;-82
2022/01/28 00:50:41;;;;;;;1.17;0.30;;;17.20;57.40;;;;;;5053210;28;44737;-82
2022/01/28 00:53:15;;;;;;;1.88;0.40;;;17.20;56.40;;;;;;5032370;28;46389;-82
2022/01/28 00:55:43;;;;;;;0.50;0.30;;;17.20;56.30;;;;;;5033279;28;44814;-82
2022/01/28 00:58:11;;;;;;;2.10;0.70;;;17.60;60.80;;;;;;5048159;28;45784;-82
2022/01/28 01:00:41;;;;;;;0.43;0.32;;;18.10;59.70;;;;;;5052451;28;44977;-81
2022/01/28 01:03:12;;;;;;;1.65;0.32;;;17.30;59.20;;;;;;5052170;28;46792;-82
2022/01/28 01:05:50;;;;;;;1.42;0.40;;;17.40;59.60;;;;;;5053540;28;44499;-82
2022/01/28 01:11:09;;;;;;;2.47;0.45;;;17.60;58.00;;;;;;5054333;28;45038;-82
2022/01/28 01:13:42;;;;;;;1.40;0.50;;;17.30;56.80;;;;;;5052390;28;47367;-82
2022/01/28 01:16:15;;;;;;;1.60;0.57;;;17.90;58.70;;;;;;5034373;28;44652;-83
2022/01/28 01:18:54;;;;;;;0.98;0.28;;;17.70;56.20;;;;;;5042238;28;45358;-82
2022/01/28 01:21:30;;;;;;;0.50;0.40;;;17.30;55.90;;;;;;5053015;28;44668;-82
2022/01/28 01:24:21;;;;;;;1.05;0.43;;;17.30;55.50;;;;;;5052982;28;47040;-83
2022/01/28 01:27:14;;;;;;;1.90;0.70;;;17.60;55.50;;;;;;5052794;28;45358;-83
2022/01/28 01:29:45;;;;;;;1.27;0.45;;;17.60;55.40;;;;;;5052561;28;44766;-83
2022/01/28 01:32:20;;;;;;;2.30;0.40;;;17.30;54.90;;;;;;5052209;28;44869;-82
2022/01/28 01:35:02;;;;;;;1.50;0.30;;;17.40;56.10;;;;;;5052439;28;45677;-82
2022/01/28 01:37:35;;;;;;;1.42;0.47;;;15.20;52.50;;;;;;5052417;28;44988;-82
2022/01/28 01:40:25;;;;;;;1.48;0.43;;;17.00;56.70;;;;;;5052249;28;44951;-82
2022/01/28 01:43:08;;;;;;;2.08;0.40;;;17.50;54.50;;;;;;5053043;28;44856;-83
2022/01/28 01:45:53;;;;;;;1.23;0.30;;;15.60;53.70;;;;;;5052325;28;45018;-82
2022/01/28 01:54:02;;;;;;;1.83;0.40;;;17.30;56.30;;;;;;5050087;28;44709;-82
2022/01/28 01:56:45;;;;;;;1.92;0.40;;;17.20;56.50;;;;;;5043077;28;45536;-82
2022/01/28 01:59:18;;;;;;;0.73;0.30;;;17.50;58.00;;;;;;5050248;28;44683;-82
2022/01/28 02:01:48;;;;;;;0.98;0.40;;;17.50;58.80;;;;;;5044202;28;44622;-82
2022/01/28 02:04:23;;;;;;;1.00;0.50;;;15.40;55.60;;;;;;5051737;28;44702;-82
2022/01/28 02:06:57;;;;;;;1.83;0.45;;;17.20;56.20;;;;;;5051490;28;47611;-82
2022/01/28 02:09:42;;;;;;;2.28;0.47;;;18.00;59.20;;;;;;5052071;28;44564;-82
2022/01/28 02:12:14;;;;;;;1.05;0.45;;;17.40;56.60;;;;;;5050330;28;44801;-82
2022/01/28 02:14:47;;;;;;;1.73;0.52;;;17.30;57.00;;;;;;5052132;28;44760;-82
2022/01/28 02:23:15;;;;;;;0.85;0.40;;;17.70;54.20;;;;;;5050137;28;44807;-83
2022/01/28 02:25:51;;;;;;;0.20;0.20;;;17.50;53.80;;;;;;5054172;28;44907;-82
2022/01/28 02:28:30;;;;;;;0.73;0.20;;;17.40;53.70;;;;;;5034126;28;47023;-82
2022/01/28 02:31:04;;;;;;;1.73;0.35;;;17.40;54.70;;;;;;5051654;28;44814;-81
2022/01/28 02:39:30;;;;;;;0.68;0.35;;;17.50;56.10;;;;;;5038971;28;47045;-82
2022/01/28 02:42:11;;;;;;;0.52;0.20;;;17.40;56.70;;;;;;5035037;28;44639;-82
2022/01/28 02:44:47;;;;;;;1.52;0.30;;;17.20;52.50;;;;;;5051860;28;44663;-82
2022/01/28 02:47:30;;;;;;;1.08;0.30;;;17.20;56.00;;;;;;5051403;28;44815;-82
2022/01/28 02:50:08;;;;;;;0.40;0.25;;;17.40;53.60;;;;;;5057281;28;45801;-82
2022/01/28 02:52:49;;;;;;;0.40;0.30;;;17.40;56.10;;;;;;5062714;28;44898;-82
2022/01/28 02:55:37;;;;;;;2.13;0.50;;;16.40;52.80;;;;;;5051658;28;44692;-82
2022/01/28 02:58:21;;;;;;;1.15;0.38;;;18.70;58.10;;;;;;5070344;28;45086;-82
2022/01/28 03:01:02;;;;;;;1.75;0.45;;;17.30;53.90;;;;;;5058563;28;45317;-82
2022/01/28 03:03:49;;;;;;;0.85;0.38;;;17.30;53.90;;;;;;5051598;28;44665;-82
2022/01/28 03:09:15;;;;;;;0.93;0.38;;;17.40;54.50;;;;;;5050153;28;44900;-83
2022/01/28 03:14:53;;;;;;;1.20;0.40;;;17.10;57.40;;;;;;5054160;28;44735;-83
2022/01/28 03:17:49;;;;;;;1.13;0.50;;;17.30;57.20;;;;;;5054459;28;44733;-83
2022/01/28 03:20:37;;;;;;;1.00;0.30;;;17.40;54.40;;;;;;5064682;28;44806;-83
2022/01/28 03:23:10;;;;;;;2.40;0.50;;;17.50;53.80;;;;;;5062069;28;45868;-84
2022/01/28 03:25:47;;;;;;;1.23;0.32;;;17.50;56.40;;;;;;5075041;28;44709;-83
2022/01/28 03:28:24;;;;;;;0.88;0.32;;;17.10;55.50;;;;;;5063790;28;44719;-83
2022/01/28 03:30:54;;;;;;;1.20;0.30;;;17.40;53.10;;;;;;5061187;28;44875;-83
2022/01/28 03:33:34;;;;;;;0.85;0.35;;;17.30;56.10;;;;;;5053879;28;45134;-83
2022/01/28 03:38:56;;;;;;;1.15;0.50;;;17.30;55.30;;;;;;5054115;28;44709;-83
2022/01/28 03:41:27;;;;;;;0.75;0.30;;;17.20;54.00;;;;;;5034448;28;45128;-83
2022/01/28 03:44:00;;;;;;;0.75;0.22;;;17.40;53.50;;;;;;5039568;28;47637;-84
2022/01/28 03:46:31;;;;;;;1.55;0.55;;;17.30;55.10;;;;;;5053576;28;44646;-83
2022/01/28 03:49:05;;;;;;;2.35;0.57;;;18.40;55.10;;;;;;5061609;28;44569;-83
2022/01/28 03:51:36;;;;;;;1.60;0.40;;;17.00;54.40;;;;;;5068512;28;44892;-83
2022/01/28 03:54:09;;;;;;;1.08;0.40;;;15.10;54.80;;;;;;5051969;28;45667;-83
2022/01/28 03:56:43;;;;;;;2.50;0.30;;;17.50;54.50;;;;;;5053967;28;44578;-83
2022/01/28 03:59:27;;;;;;;0.28;0.17;;;18.10;58.00;;;;;;5047068;28;44698;-83
2022/01/28 04:02:04;;;;;;;0.60;0.30;;;16.10;54.40;;;;;;5053963;28;45024;-83
2022/01/28 04:13:28;;;;;;;0.43;0.32;;;17.50;52.30;;;;;;5075291;28;44797;-84
2022/01/28 04:21:36;;;;;;;1.00;0.40;;;17.70;55.50;;;;;;5065057;28;44852;-84
2022/01/28 04:26:55;;;;;;;0.52;0.25;;;17.30;51.50;;;;;;5054278;28;47245;-84
2022/01/28 04:29:26;;;;;;;2.08;0.45;;;17.10;54.00;;;;;;5056814;28;44916;-83
2022/01/28 04:32:25;;;;;;;1.10;0.40;;;18.50;56.20;;;;;;5054442;28;44670;-84
2022/01/28 04:35:06;;;;;;;0.88;0.30;;;17.70;55.40;;;;;;5059351;28;44801;-84
2022/01/28 04:37:50;;;;;;;1.00;0.40;;;17.60;54.90;;;;;;5057525;28;46652;-83
2022/01/28 04:43:15;;;;;;;1.98;0.70;;;17.30;52.20;;;;;;5055567;28;44699;-84
2022/01/28 04:45:58;;;;;;;0.85;0.50;;;17.20;55.30;;;;;;5074337;28;44800;-84
2022/01/28 04:48:51;;;;;;;1.65;0.60;;;17.20;55.00;;;;;;5058720;28;45777;-84
2022/01/28 04:51:58;;;;;;;1.60;0.40;;;17.50;52.50;;;;;;5053116;28;45022;-84
2022/01/28 04:54:50;;;;;;;1.35;0.50;;;17.40;52.60;;;;;;5063163;28;45091;-84
2022/01/28 04:57:33;;;;;;;1.50;0.43;;;17.40;53.30;;;;;;5053995;28;44742;-84
2022/01/28 05:03:04;;;;;;;0.80;0.35;;;17.30;53.20;;;;;;5062508;28;44572;-83
2022/01/28 05:06:20;;;;;;;3.15;0.50;;;17.40;54.90;;;;;;5037586;28;44612;-84
2022/01/28 05:09:13;;;;;;;0.30;0.20;;;17.30;57.00;;;;;;5060188;28;44817;-84
2022/01/28 05:23:42;;;;;;;0.57;0.25;;;17.20;52.70;;;;;;4950026;28;45760;-81
2022/01/28 05:26:24;;;;;;;0.88;0.40;;;17.10;52.40;;;;;;4960129;28;45402;-83
2022/01/28 05:28:56;;;;;;;1.00;0.60;;;17.10;52.20;;;;;;4953631;28;45162;-82
2022/01/28 05:31:23;;;;;;;1.45;0.43;;;17.00;53.60;;;;;;4961131;28;45322;-82
2022/01/28 05:33:52;;;;;;;1.63;0.30;;;19.10;58.00;;;;;;4951916;28;46304;-81
2022/01/28 05:36:20;;;;;;;0.82;0.30;;;17.20;54.70;;;;;;4956860;28;45209;-83
2022/01/28 05:39:04;;;;;;;1.45;0.50;;;15.30;53.40;;;;;;4966681;28;45312;-83
2022/01/28 05:41:32;;;;;;;0.90;0.40;;;17.40;55.10;;;;;;4960251;28;45363;-82
2022/01/28 05:44:02;;;;;;;1.15;0.60;;;17.10;53.40;;;;;;4974767;28;46656;-85
2022/01/28 05:46:34;;;;;;;0.60;0.20;;;17.00;54.60;;;;;;4969628;28;45194;-87
2022/01/28 05:49:08;;;;;;;2.20;0.63;;;16.10;53.70;;;;;;4961375;28;44841;-86
2022/01/28 05:51:38;;;;;;;2.28;0.52;;;17.30;55.40;;;;;;4963542;28;45108;-86
2022/01/28 05:54:06;;;;;;;1.02;0.40;;;17.20;55.50;;;;;;4957325;28;45762;-81
2022/01/28 05:56:33;;;;;;;1.75;0.47;;;17.00;52.40;;;;;;4951818;28;45321;-81
2022/01/28 05:59:00;;;;;;;1.23;0.43;;;17.00;52.00;;;;;;4955039;28;45315;-80
2022/01/28 06:01:28;;;;;;;0.60;0.45;;;17.00;52.50;;;;;;4954779;28;45146;-81
2022/01/28 06:03:55;;;;;;;3.63;0.55;;;17.00;52.60;;;;;;4969874;28;48201;-82
2022/01/28 06:06:26;;;;;;;0.77;0.45;;;16.80;52.90;;;;;;4977187;28;45376;-82
2022/01/28 06:09:00;;;;;;;2.78;0.73;;;17.10;52.00;;;;;;4973121;28;45138;-82
2022/01/28 06:14:29;;;;;;;1.35;0.50;;;17.10;54.70;;;;;;4962158;28;45696;-82
2022/01/28 06:16:56;;;;;;;1.17;0.40;;;17.20;54.80;;;;;;4964782;28;45416;-79
2022/01/28 06:19:25;;;;;;;2.03;0.57;;;17.10;52.60;;;;;;4982207;28;45425;-81
2022/01/28 06:21:51;;;;;;;0.98;0.50;;;17.30;54.40;;;;;;4954165;28;45429;-77
2022/01/28 06:24:18;;;;;;;9.77;0.70;;;17.20;52.20;;;;;;4943639;28;46332;-78
2022/01/28 06:26:47;;;;;;;4.47;0.60;;;17.20;53.10;;;;;;4951217;28;45284;-79
2022/01/28 06:29:14;;;;;;;0.82;0.30;;;17.20;52.90;;;;;;4945738;28;45304;-80
2022/01/28 06:31:43;;;;;;;2.83;0.35;;;17.20;52.80;;;;;;4949322;28;45266;-80
2022/01/28 06:34:10;;;;;;;3.92;0.80;;;17.20;52.80;;;;;;4945715;28;47655;-79
2022/01/28 06:36:37;;;;;;;2.78;0.70;;;17.20;52.40;;;;;;4941942;28;46075;-79
2022/01/28 06:39:04;;;;;;;1.83;0.60;;;17.30;52.60;;;;;;4949933;28;45340;-81
2022/01/28 06:41:32;;;;;;;2.25;0.60;;;17.20;53.50;;;;;;4956157;28;45480;-81
2022/01/28 06:44:03;;;;;;;0.85;0.32;;;17.20;53.40;;;;;;4961581;28;47237;-81
2022/01/28 06:46:30;;;;;;;0.60;0.35;;;17.20;53.60;;;;;;4968261;28;45475;-81
2022/01/28 06:48:57;;;;;;;1.52;0.47;;;17.10;51.50;;;;;;4954092;28;45421;-80
2022/01/28 06:51:25;;;;;;;2.10;0.30;;;17.20;52.00;;;;;;4984422;28;45255;-81
2022/01/28 06:53:59;;;;;;;3.00;0.60;;;17.10;51.60;;;;;;4986068;28;46951;-81
2022/01/28 06:56:29;;;;;;;4.00;0.82;;;17.20;51.40;;;;;;4956281;28;45249;-81
2022/01/28 06:58:57;;;;;;;1.75;0.50;;;17.20;51.60;;;;;;4969160;28;45317;-81
2022/01/28 07:01:26;;;;;;;1.65;0.52;;;17.40;52.90;;;;;;4954488;28;45227;-81
2022/01/28 07:03:52;;;;;;;1.48;0.38;;;17.40;51.70;;;;;;4956298;28;48405;-81
2022/01/28 07:06:21;;;;;;;1.65;0.57;;;17.20;52.30;;;;;;4960499;28;45259;-81
2022/01/28 07:08:48;;;;;;;2.83;0.50;;;17.20;51.70;;;;;;4967151;28;44822;-81
2022/01/28 07:11:18;;;;;;;0.93;0.40;;;17.20;52.80;;;;;;4975881;28;45231;-82
2022/01/28 07:13:45;;;;;;;1.10;0.50;;;17.30;53.10;;;;;;4975095;28;45551;-81
2022/01/28 07:16:12;;;;;;;1.05;0.43;;;17.30;54.80;;;;;;4956871;28;45262;-81
2022/01/28 07:18:41;;;;;;;1.70;0.50;;;17.20;52.70;;;;;;4958646;28;46373;-81
2022/01/28 07:21:12;;;;;;;1.33;0.50;;;17.30;51.80;;;;;;4962835;28;45291;-83
2022/01/28 07:23:39;;;;;;;2.63;0.40;;;17.40;53.00;;;;;;4959962;28;46491;-81
2022/01/28 07:26:06;;;;;;;2.05;0.50;;;17.20;52.10;;;;;;4947397;28;45122;-78
2022/01/28 07:28:34;;;;;;;2.05;0.55;;;17.20;51.90;;;;;;4947681;28;45389;-78
2022/01/28 07:31:01;;;;;;;2.17;0.47;;;17.20;52.50;;;;;;4951968;28;45360;-81
2022/01/28 07:33:28;;;;;;;1.20;0.40;;;17.00;51.40;;;;;;4955139;28;45531;-80
2022/01/28 07:35:57;;;;;;;1.40;0.47;;;17.20;51.90;;;;;;4951598;28;45385;-81
2022/01/28 07:38:28;;;;;;;1.05;0.30;;;17.20;52.30;;;;;;4957400;28;45091;-81
2022/01/28 07:40:58;;;;;;;2.35;0.47;;;18.10;54.00;;;;;;4961308;28;45407;-81
2022/01/28 07:43:27;;;;;;;2.67;0.57;;;17.70;53.40;;;;;;4959559;28;46299;-81
2022/01/28 07:45:58;;;;;;;1.23;0.55;;;17.20;51.60;;;;;;4956426;28;45270;-81
2022/01/28 07:48:29;;;;;;;0.88;0.50;;;17.20;51.70;;;;;;4958197;28;45242;-81
2022/01/28 07:51:00;;;;;;;1.42;0.50;;;17.30;53.60;;;;;;4960184;28;45176;-81
2022/01/28 07:53:29;;;;;;;0.63;0.50;;;17.30;52.90;;;;;;4957257;28;45343;-81
2022/01/28 07:55:57;;;;;;;1.25;0.38;;;17.30;52.30;;;;;;4956664;28;45139;-81
2022/01/28 07:58:31;;;;;;;2.95;0.55;;;17.30;52.90;;;;;;4956704;28;45293;-81
2022/01/28 08:00:58;;;;;;;1.17;0.40;;;17.30;51.50;;;;;;4959830;28;45363;-81
2022/01/28 08:03:28;;;;;;;1.25;0.50;;;17.30;52.00;;;;;;4968058;28;46771;-81
2022/01/28 08:06:06;;;;;;;1.33;0.40;;;17.40;52.10;;;;;;4964635;28;45672;-82
2022/01/28 08:08:34;;;;;;;1.48;0.68;;;17.50;52.10;;;;;;4962743;28;45244;-81
2022/01/28 08:11:04;;;;;;;0.93;0.30;;;19.50;57.30;;;;;;4959595;28;45159;-82
2022/01/28 08:13:36;;;;;;;2.35;0.70;;;17.20;52.60;;;;;;4960324;28;46582;-82
2022/01/28 08:16:07;;;;;;;2.50;0.60;;;17.30;52.90;;;;;;4985985;28;45098;-81
2022/01/28 08:18:35;;;;;;;1.33;0.50;;;17.30;53.30;;;;;;4974151;28;45097;-82
2022/01/28 08:21:08;;;;;;;1.23;0.50;;;17.40;53.20;;;;;;4959987;28;45132;-81
2022/01/28 08:23:36;;;;;;;1.63;0.55;;;17.30;52.20;;;;;;4960315;28;47235;-82
2022/01/28 08:26:05;;;;;;;2.75;0.60;;;17.40;54.00;;;;;;4978497;28;45266;-81
2022/01/28 08:28:34;;;;;;;1.88;0.60;;;17.30;52.90;;;;;;4972145;28;44966;-81
2022/01/28 08:31:01;;;;;;;2.13;0.63;;;17.30;51.80;;;;;;4960584;28;45172;-81
2022/01/28 08:33:29;;;;;;;2.67;0.45;;;18.40;53.30;;;;;;4961261;28;47719;-82
2022/01/28 08:35:57;;;;;;;1.02;0.40;;;17.30;51.60;;;;;;4957963;28;46645;-80
2022/01/28 08:38:28;;;;;;;1.50;0.50;;;17.30;51.60;;;;;;4960504;28;45526;-80
2022/01/28 08:40:57;;;;;;;1.00;0.50;;;17.20;52.00;;;;;;4955557;28;45420;-80
2022/01/28 08:43:24;;;;;;;0.85;0.40;;;17.20;51.80;;;;;;4948445;28;47337;-79
2022/01/28 08:45:51;;;;;;;1.70;0.50;;;17.20;51.40;;;;;;4960934;28;45321;-77
2022/01/28 08:48:18;;;;;;;0.60;0.40;;;17.30;51.50;;;;;;4961320;28;45336;-77
2022/01/28 08:50:45;;;;;;;1.33;0.50;;;17.30;51.50;;;;;;4960570;28;45595;-80
2022/01/28 08:53:12;;;;;;;1.70;0.63;;;17.30;51.50;;;;;;4963547;28;45429;-79
2022/01/28 08:55:40;;;;;;;1.58;0.70;;;17.20;51.40;;;;;;4955302;28;45283;-78
2022/01/28 08:58:09;;;;;;;1.63;0.60;;;17.20;51.40;;;;;;4951366;28;45235;-78
2022/01/28 09:00:36;;;;;;;1.55;0.50;;;17.20;51.40;;;;;;4955596;28;45438;-78
2022/01/28 09:03:03;;;;;;;2.67;0.75;;;17.20;51.40;;;;;;4947954;28;45207;-79
2022/01/28 09:05:30;;;;;;;2.22;0.63;;;17.20;51.50;;;;;;4947033;28;45180;-79
2022/01/28 09:07:57;;;;;;;1.63;0.65;;;17.10;51.90;;;;;;4946738;28;45299;-78
2022/01/28 09:10:29;;;;;;;1.60;0.52;;;17.10;52.10;;;;;;4948283;28;45440;-78
2022/01/28 09:13:21;;;;;;;2.03;0.50;;;17.00;51.90;;;;;;4965551;28;47393;-80
2022/01/28 09:15:49;;;;;;;1.23;0.75;;;17.10;51.40;;;;;;4942567;28;45282;-80
2022/01/28 09:18:16;;;;;;;3.92;0.63;;;17.00;52.00;;;;;;4961271;28;45317;-80
2022/01/28 09:20:42;;;;;;;0.95;0.63;;;17.00;52.30;;;;;;4961717;28;45428;-80
2022/01/28 09:23:10;;;;;;;1.88;0.75;;;17.00;52.70;;;;;;4936468;28;47350;-80
2022/01/28 09:25:39;;;;;;;1.05;0.50;;;17.00;52.60;;;;;;4951598;28;45279;-80
2022/01/28 09:28:08;;;;;;;1.20;0.60;;;17.00;52.70;;;;;;4949633;28;45278;-81
2022/01/28 09:30:35;;;;;;;0.98;0.50;;;17.00;52.70;;;;;;4950886;28;45314;-80
2022/01/28 09:33:03;;;;;;;1.30;0.60;;;17.00;52.50;;;;;;4950190;28;45278;-80
2022/01/28 09:35:31;;;;;;;1.35;0.47;;;17.00;52.70;;;;;;4949979;28;45173;-79
2022/01/28 09:37:58;;;;;;;1.35;0.50;;;17.10;52.70;;;;;;4956503;28;45605;-80
2022/01/28 09:40:25;;;;;;;0.93;0.65;;;17.10;52.60;;;;;;4949740;28;45250;-80
2022/01/28 09:42:52;;;;;;;0.80;0.50;;;17.10;52.00;;;;;;4955613;28;45332;-80
2022/01/28 09:45:24;;;;;;;0.98;0.50;;;17.10;52.20;;;;;;4954832;28;45110;-81
2022/01/28 09:47:53;;;;;;;1.77;0.50;;;17.10;51.50;;;;;;4953777;28;45303;-81
2022/01/28 09:50:21;;;;;;;1.48;0.63;;;17.20;51.90;;;;;;4968813;28;45115;-81
2022/01/28 09:52:49;;;;;;;2.15;0.60;;;17.20;52.30;;;;;;4965122;28;46449;-80
2022/01/28 09:55:22;;;;;;;2.95;0.63;;;17.20;51.70;;;;;;4973358;28;45138;-83
2022/01/28 10:07:13;;;;;;;2.22;0.50;;;16.90;53.90;;;;;;4955181;28;45705;-84
2022/01/28 10:09:57;;;;;;;2.17;0.68;;;17.20;53.70;;;;;;4967033;28;45283;-84
2022/01/28 10:12:34;;;;;;;1.40;0.60;;;16.60;53.30;;;;;;4958348;28;45261;-85
2022/01/28 10:15:16;;;;;;;1.33;0.70;;;18.60;59.40;;;;;;4959251;28;45774;-84
2022/01/28 10:18:06;;;;;;;2.30;0.70;;;17.30;58.40;;;;;;4973784;28;45156;-83
2022/01/28 10:20:38;;;;;;;2.53;0.70;;;16.20;55.50;;;;;;4965995;28;44829;-85
2022/01/28 10:23:14;;;;;;;1.20;0.57;;;17.40;56.80;;;;;;4970334;28;45393;-85
2022/01/28 10:28:33;;;;;;;1.55;0.70;;;17.70;56.40;;;;;;4964338;28;45281;-85
2022/01/28 10:31:05;;;;;;;1.13;0.52;;;19.00;59.80;;;;;;4967253;28;45266;-81
2022/01/28 10:40:18;;;;;;;1.25;0.52;;;17.70;55.40;;;;;;4957862;28;45362;-78
2022/01/28 10:42:51;;;;;;;2.28;0.50;;;17.10;55.20;;;;;;4955274;28;45159;-81
2022/01/28 10:45:19;;;;;;;1.80;0.60;;;17.10;55.80;;;;;;4956270;28;45458;-80
2022/01/28 10:47:53;;;;;;;2.75;0.63;;;17.20;55.70;;;;;;4955603;28;47230;-82
2022/01/28 10:50:29;;;;;;;1.80;0.55;;;17.20;56.30;;;;;;4963163;28;44681;-82
2022/01/28 10:53:08;;;;;;;1.80;0.63;;;17.30;60.20;;;;;;4974718;28;45230;-82
2022/01/28 10:55:48;;;;;;;6.28;1.05;;;17.10;54.80;;;;;;4954688;28;45208;-83
2022/01/28 10:58:17;;;;;;;1.08;0.40;;;19.30;58.50;;;;;;4960379;28;45408;-77
2022/01/28 11:00:47;;;;;;;1.63;0.73;;;17.10;55.20;;;;;;4957154;28;45799;-81
2022/01/28 11:03:18;;;;;;;1.38;0.60;;;17.20;55.50;;;;;;4953226;28;45349;-81
2022/01/28 11:05:50;;;;;;;1.65;0.65;;;17.30;57.70;;;;;;4963102;28;45265;-82
2022/01/28 11:08:18;;;;;;;3.38;0.90;;;17.40;59.20;;;;;;4962498;28;48146;-81
2022/01/28 11:10:54;;;;;;;2.13;0.68;;;16.90;58.50;;;;;;4970779;28;45386;-81
2022/01/28 11:13:25;;;;;;;1.77;0.55;;;17.40;55.10;;;;;;4963445;28;45094;-82
2022/01/28 11:15:53;;;;;;;1.48;0.60;;;17.20;58.90;;;;;;4959408;28;45130;-81
2022/01/28 11:18:28;;;;;;;2.78;0.82;;;17.00;57.30;;;;;;4960564;28;46388;-82
2022/01/28 11:21:13;;;;;;;1.48;0.52;;;17.20;56.40;;;;;;4959362;28;44845;-83
2022/01/28 11:23:59;;;;;;;1.83;0.60;;;17.40;60.50;;;;;;4952479;28;44779;-82
2022/01/28 11:26:39;;;;;;;1.50;0.60;;;17.20;59.60;;;;;;4949463;28;44850;-83
2022/01/28 11:32:19;;;;;;;1.55;0.50;;;19.50;58.30;;;;;;4961676;28;45700;-83
2022/01/28 11:38:04;;;;;;;3.95;0.70;;;17.40;56.20;;;;;;4967461;28;45472;-84
2022/01/28 11:41:10;;;;;;;1.48;0.55;;;17.00;55.60;;;;;;4965865;28;45526;-84
2022/01/28 11:46:47;;;;;;;1.58;0.57;;;17.90;56.50;;;;;;4965440;28;45366;-83
2022/01/28 11:49:24;;;;;;;1.10;0.60;;;17.50;59.00;;;;;;4967016;28;45667;-83
2022/01/28 11:51:52;;;;;;;1.48;0.60;;;19.40;60.00;;;;;;4970309;28;47360;-84
2022/01/28 11:54:34;;;;;;;2.05;0.63;;;17.40;59.40;;;;;;4960025;28;44805;-82
2022/01/28 11:57:16;;;;;;;1.15;0.47;;;17.40;56.30;;;;;;4961849;28;45102;-82
2022/01/28 11:59:47;;;;;;;1.65;0.57;;;17.20;54.80;;;;;;4968002;28;45196;-84
2022/01/28 12:02:17;;;;;;;1.70;0.70;;;17.60;57.90;;;;;;4965336;28;47763;-82
2022/01/28 12:04:46;;;;;;;0.65;0.30;;;17.70;56.80;;;;;;4959260;28;45037;-82
2022/01/28 12:07:26;;;;;;;0.63;0.40;;;17.40;59.60;;;;;;4963032;28;45989;-83
2022/01/28 12:09:58;;;;;;;1.38;0.50;;;17.70;56.80;;;;;;4960422;28;45274;-84
2022/01/28 12:12:56;;;;;;;0.90;0.45;;;17.40;58.60;;;;;;4960189;28;45894;-83
2022/01/28 12:15:38;;;;;;;0.55;0.40;;;17.20;54.70;;;;;;4951208;28;45229;-83
2022/01/28 12:18:25;;;;;;;1.05;0.47;;;17.30;59.00;;;;;;4964905;28;45101;-83
2022/01/28 12:21:01;;;;;;;1.55;0.60;;;17.60;59.40;;;;;;4965392;28;45209;-84
2022/01/28 12:23:34;;;;;;;0.88;0.47;;;19.50;60.50;;;;;;4969019;28;45542;-84
2022/01/28 12:26:07;;;;;;;1.63;0.60;;;17.50;58.50;;;;;;4964649;28;44729;-84
2022/01/28 12:28:57;;;;;;;1.83;0.52;;;17.40;55.00;;;;;;4964032;28;45295;-84
2022/01/28 12:31:45;;;;;;;0.65;0.30;;;17.50;57.50;;;;;;4964677;28;44876;-84
2022/01/28 12:34:16;;;;;;;0.40;0.28;;;17.60;59.60;;;;;;4966495;28;45561;-83
2022/01/28 12:36:59;;;;;;;0.90;0.30;;;17.50;59.20;;;;;;4966363;28;45116;-84
2022/01/28 12:39:44;;;;;;;2.20;0.55;;;17.60;57.90;;;;;;4968305;28;45037;-84
2022/01/28 12:42:23;;;;;;;1.80;0.52;;;17.90;58.30;;;;;;5025065;28;45123;-85
2022/01/28 12:44:53;;;;;;;1.25;0.40;;;17.20;55.70;;;;;;4964820;28;47581;-84
2022/01/28 12:47:30;;;;;;;0.95;0.32;;;17.50;56.90;;;;;;4965118;28;45188;-84
2022/01/28 12:50:03;;;;;;;1.02;0.40;;;17.40;54.20;;;;;;4965326;28;45117;-84
2022/01/28 12:55:19;;;;;;;1.85;0.60;;;17.50;58.00;;;;;;4973843;28;47155;-85
2022/01/28 12:57:51;;;;;;;0.55;0.40;;;17.50;58.80;;;;;;4965372;28;45276;-85
2022/01/28 13:00:26;;;;;;;1.05;0.57;;;19.40;59.70;;;;;;4965033;28;45195;-83
2022/01/28 13:03:28;;;;;;;2.75;0.60;;;17.60;56.30;;;;;;4966514;28;44968;-85
2022/01/28 13:06:07;;;;;;;0.73;0.25;;;17.60;55.30;;;;;;4969672;28;45785;-84
2022/01/28 13:09:19;;;;;;;2.15;0.73;;;17.30;56.10;;;;;;4964894;28;45316;-85
2022/01/28 13:11:49;;;;;;;1.08;0.50;;;17.30;55.80;;;;;;4964845;28;45750;-85
2022/01/28 13:14:30;;;;;;;0.90;0.45;;;17.10;56.00;;;;;;4963676;28;45061;-85
2022/01/28 13:20:03;;;;;;;1.52;0.50;;;17.10;55.10;;;;;;4972599;28;45260;-84
2022/01/28 13:22:37;;;;;;;1.63;0.50;;;16.00;55.60;;;;;;4964413;28;45025;-85
2022/01/28 13:25:40;;;;;;;0.45;0.40;;;17.50;59.60;;;;;;4987673;28;44876;-84
2022/01/28 13:28:15;;;;;;;1.65;0.50;;;16.80;58.00;;;;;;4958453;28;45635;-84
2022/01/28 13:30:59;;;;;;;0.90;0.20;;;17.60;55.30;;;;;;4969866;28;44718;-85
2022/01/28 13:33:32;;;;;;;1.70;0.40;;;15.90;54.00;;;;;;4964559;28;45192;-84
2022/01/28 13:36:09;;;;;;;1.05;0.35;;;17.50;56.90;;;;;;4963244;28;45219;-84
2022/01/28 13:38:44;;;;;;;0.93;0.47;;;17.10;53.70;;;;;;4967393;28;45523;-85
2022/01/28 13:41:28;;;;;;;0.30;0.20;;;17.50;57.40;;;;;;4959557;28;45082;-82
2022/01/28 13:44:03;;;;;;;0.70;0.30;;;17.40;57.20;;;;;;4979806;28;45140;-84
2022/01/28 13:46:36;;;;;;;2.22;0.55;;;17.20;57.00;;;;;;4955862;28;45474;-83
2022/01/28 13:49:16;;;;;;;0.70;0.40;;;17.40;58.00;;;;;;4963501;28;46091;-84
2022/01/28 13:51:51;;;;;;;1.77;0.30;;;18.40;56.80;;;;;;4964445;28;45317;-85
2022/01/28 13:54:36;;;;;;;1.15;0.50;;;17.50;55.90;;;;;;4956682;28;44736;-85
2022/01/28 13:57:21;;;;;;;2.13;0.68;;;17.40;57.50;;;;;;4964395;28;44774;-85
2022/01/28 14:05:59;;;;;;;1.13;0.47;;;17.10;55.80;;;;;;4961215;28;44737;-84
2022/01/28 14:13:00;;;;;;;1.35;0.40;;;19.10;58.50;;;;;;4949760;28;46373;-84
2022/01/28 14:15:38;;;;;;;1.45;0.40;;;17.50;56.70;;;;;;4972860;28;44793;-84
2022/01/28 14:18:11;;;;;;;1.52;0.55;;;17.10;55.90;;;;;;4966395;28;45066;-84
2022/01/28 14:20:45;;;;;;;1.95;0.82;;;17.50;59.20;;;;;;4972353;28;44828;-85
2022/01/28 14:26:06;;;;;;;2.28;0.60;;;17.50;55.80;;;;;;4967279;28;45161;-84
2022/01/28 14:31:57;;;;;;;0.85;0.35;;;17.30;55.70;;;;;;4945258;28;45284;-83
2022/01/28 14:34:38;;;;;;;0.35;0.32;;;16.60;57.50;;;;;;4964147;28;46708;-85
2022/01/28 14:37:11;;;;;;;1.77;0.50;;;17.30;57.50;;;;;;4950980;28;45254;-85
2022/01/28 14:39:51;;;;;;;2.17;0.68;;;17.30;54.80;;;;;;4966874;28;44799;-84
2022/01/28 14:42:29;;;;;;;2.22;0.60;;;16.90;57.50;;;;;;4965366;28;45113;-85
2022/01/28 14:45:13;;;;;;;1.92;0.80;;;18.40;56.10;;;;;;4963519;28;45516;-85
2022/01/28 14:47:51;;;;;;;1.73;0.80;;;17.20;54.20;;;;;;4965909;28;45069;-85
2022/01/28 14:50:21;;;;;;;3.05;0.60;;;18.70;55.70;;;;;;4963224;28;45034;-85
2022/01/28 14:53:03;;;;;;;1.35;0.68;;;17.40;57.80;;;;;;4963685;28;45457;-85
2022/01/28 14:55:34;;;;;;;1.55;0.70;;;17.20;58.90;;;;;;4963190;28;45824;-85
2022/01/28 14:58:16;;;;;;;1.80;0.80;;;17.40;57.70;;;;;;4963555;28;45129;-85
2022/01/28 15:01:05;;;;;;;1.00;0.57;;;16.90;57.90;;;;;;4944105;28;44965;-85
2022/01/28 15:03:36;;;;;;;1.45;0.50;;;16.90;58.70;;;;;;4944754;28;44800;-85
2022/01/28 15:06:11;;;;;;;0.57;0.50;;;19.30;60.40;;;;;;4955389;28;45653;-85
2022/01/28 15:08:46;;;;;;;1.65;0.88;;;17.30;55.90;;;;;;4969629;28;44811;-85
2022/01/28 15:11:32;;;;;;;1.60;0.70;;;17.70;58.50;;;;;;4969509;28;45247;-85
2022/01/28 15:14:10;;;;;;;1.30;0.57;;;17.20;55.10;;;;;;4970162;28;44813;-85
2022/01/28 15:16:47;;;;;;;1.75;0.95;;;17.30;57.20;;;;;;4952891;28;47481;-85
2022/01/28 15:19:21;;;;;;;1.75;0.70;;;18.20;56.50;;;;;;4969560;28;44781;-84
2022/01/28 15:21:55;;;;;;;1.48;0.60;;;16.90;55.90;;;;;;4968739;28;45283;-85
2022/01/28 15:24:30;;;;;;;1.48;0.68;;;17.50;58.40;;;;;;5017262;28;45007;-85
2022/01/28 15:27:02;;;;;;;1.58;0.70;;;17.30;54.30;;;;;;4975286;28;47727;-85
2022/01/28 15:29:49;;;;;;;1.80;0.85;;;17.00;54.30;;;;;;4968526;28;45361;-85
2022/01/28 15:37:55;;;;;;;1.30;1.00;;;17.50;55.90;;;;;;4963261;28;45648;-85
2022/01/28 15:40:25;;;;;;;2.00;0.80;;;17.10;57.70;;;;;;4980432;28;45206;-84
2022/01/28 15:43:00;;;;;;;2.50;1.02;;;17.20;57.80;;;;;;4969355;28;44792;-85
2022/01/28 15:45:33;;;;;;;1.83;1.30;;;17.20;55.30;;;;;;4969543;28;44863;-85